Time;durP1;ratioP1;P1;durP2;ratioP2;P2;SDS_P1;SDS_P2;PMS_P1;PMS_P2;Temp;Humidity;BMP_temperature;BMP_pressure;BME280_temperature;BME280_humidity;BME280_pressure;Samples;Min_cycle;Max_cycle;Signal;HPM_P1;HPM_P2
2022/12/08 00:01:13;;;;;;;;;54.50;42.00;;;;;7.56;65.74;101346.16;2434500;28;47560;-86
2022/12/08 00:02:24;;;;;;;;;57.50;43.50;;;;;7.56;66.03;101345.31;2440482;28;44696;-86
2022/12/08 00:03:35;;;;;;;;;56.75;46.25;;;;;7.56;65.55;101342.69;2441642;28;45306;-86
2022/12/08 00:09:37;;;;;;;;;66.00;49.25;;;;;7.50;65.30;101335.78;2448440;28;45867;-86
2022/12/08 00:10:47;;;;;;;;;63.25;48.25;;;;;7.47;65.64;101335.81;2451576;28;45263;-86
2022/12/08 00:12:02;;;;;;;;;64.75;50.50;;;;;7.47;65.84;101338.44;2444077;28;46778;-86
2022/12/08 00:13:12;;;;;;;;;64.75;47.50;;;;;7.45;65.83;101337.59;2450239;28;45399;-86
2022/12/08 00:14:32;;;;;;;;;65.50;48.00;;;;;7.43;66.03;101335.84;2441028;28;48028;-86
2022/12/08 00:15:42;;;;;;;;;70.25;52.75;;;;;7.42;66.06;101330.63;2441523;28;45500;-86
2022/12/08 00:16:53;;;;;;;;;66.75;51.25;;;;;7.42;65.68;101331.50;2441366;28;47207;-86
2022/12/08 00:18:04;;;;;;;;;66.25;52.25;;;;;7.42;66.19;101328.00;2434679;28;45479;-86
2022/12/08 00:19:14;;;;;;;;;67.50;52.00;;;;;7.42;66.29;101331.50;2441692;28;45278;-86
2022/12/08 00:20:24;;;;;;;;;72.50;52.50;;;;;7.42;66.22;101328.00;2441646;28;45248;-86
2022/12/08 00:21:35;;;;;;;;;67.50;51.00;;;;;7.42;65.79;101333.25;2441564;28;45285;-86
2022/12/08 00:22:45;;;;;;;;;66.50;52.25;;;;;7.41;66.52;101321.91;2441511;28;45313;-86
2022/12/08 00:23:55;;;;;;;;;67.00;49.75;;;;;7.42;66.50;101325.41;2437251;28;46288;-86
2022/12/08 00:25:06;;;;;;;;;69.75;52.50;;;;;7.42;66.42;101322.78;2451227;27;45187;-86
2022/12/08 00:26:16;;;;;;;;;62.75;49.25;;;;;7.45;66.52;101321.88;2452227;27;45442;-86
2022/12/08 00:27:27;;;;;;;;;65.50;51.00;;;;;7.44;66.27;101315.78;2461253;27;45274;-86
2022/12/08 00:28:37;;;;;;;;;67.25;53.25;;;;;7.44;66.38;101313.16;2448585;28;48053;-86
2022/12/08 00:29:47;;;;;;;;;69.25;50.25;;;;;7.44;66.28;101313.16;2441724;28;44685;-87
2022/12/08 00:30:58;;;;;;;;;64.75;51.25;;;;;7.43;66.42;101317.53;2442184;28;46499;-86
2022/12/08 00:32:08;;;;;;;;;66.50;50.50;;;;;7.43;66.43;101309.69;2451181;28;45241;-86
2022/12/08 00:33:18;;;;;;;;;69.25;50.00;;;;;7.44;66.18;101310.56;2440606;28;47262;-87
2022/12/08 00:34:30;;;;;;;;;62.50;48.00;;;;;7.44;66.20;101300.09;2434082;28;44630;-87
2022/12/08 00:35:40;;;;;;;;;69.50;53.25;;;;;7.42;66.42;101305.34;2441582;28;45422;-86
2022/12/08 00:36:51;;;;;;;;;69.25;52.25;;;;;7.40;66.15;101304.50;2441677;28;44673;-86
2022/12/08 00:38:01;;;;;;;;;64.75;51.00;;;;;7.40;65.85;101307.13;2434444;28;47173;-86
2022/12/08 00:39:14;;;;;;;;;60.75;47.00;;;;;7.38;66.37;101302.78;2434635;28;45180;-86
2022/12/08 00:40:24;;;;;;;;;66.50;51.00;;;;;7.36;66.59;101305.41;2441127;28;46457;-86
2022/12/08 00:43:04;;;;;;;;;72.25;54.00;;;;;7.32;65.87;101308.94;2447502;28;45808;-87
2022/12/08 00:44:17;;;;;;;;;66.00;51.50;;;;;7.29;66.47;101306.34;2449114;28;44663;-86
2022/12/08 00:45:28;;;;;;;;;67.50;49.50;;;;;7.28;66.17;101304.63;2434733;28;47618;-86
2022/12/08 00:46:38;;;;;;;;;69.75;54.50;;;;;7.28;66.13;101302.88;2441376;28;45251;-86
2022/12/08 00:47:49;;;;;;;;;61.25;48.75;;;;;7.27;66.16;101300.25;2442008;28;45508;-86
2022/12/08 00:48:59;;;;;;;;;65.25;50.75;;;;;7.25;65.93;101299.41;2442167;28;45466;-86
2022/12/08 00:50:10;;;;;;;;;68.00;52.25;;;;;7.23;66.00;101294.22;2442044;28;46464;-87
2022/12/08 00:51:20;;;;;;;;;69.50;51.50;;;;;7.22;66.23;101294.22;2440196;28;44869;-86
2022/12/08 00:52:31;;;;;;;;;69.25;53.00;;;;;7.18;66.03;101299.50;2441260;28;46992;-86
2022/12/08 00:53:41;;;;;;;;;68.75;52.75;;;;;7.18;65.91;101296.00;2440947;28;45422;-86
2022/12/08 00:54:51;;;;;;;;;62.00;50.50;;;;;7.17;66.06;101296.88;2441636;28;46550;-86
2022/12/08 00:56:01;;;;;;;;;66.00;51.75;;;;;7.16;66.00;101296.00;2442124;28;45286;-87
2022/12/08 00:57:12;;;;;;;;;66.75;53.00;;;;;7.14;66.08;101297.75;2441282;28;48094;-86
2022/12/08 00:58:22;;;;;;;;;60.50;47.25;;;;;7.14;66.02;101295.16;2439027;28;45310;-86
2022/12/08 00:59:33;;;;;;;;;69.75;53.00;;;;;7.14;66.16;101296.91;2441262;28;47669;-86
2022/12/08 01:00:43;;;;;;;;;68.00;52.25;;;;;7.13;66.25;101293.44;2433781;28;44665;-85
2022/12/08 01:01:53;;;;;;;;;66.25;52.00;;;;;7.12;65.93;101289.06;2433464;28;47169;-87
2022/12/08 01:03:03;;;;;;;;;61.75;50.00;;;;;7.11;66.14;101287.38;2433625;28;45338;-86
2022/12/08 01:04:16;;;;;;;;;73.50;54.50;;;;;7.11;66.39;101287.38;2441410;28;46282;-86
2022/12/08 01:05:27;;;;;;;;;70.75;51.25;;;;;7.08;66.16;101283.03;2441940;28;45275;-86
2022/12/08 01:06:38;;;;;;;;;57.00;43.25;;;;;7.08;66.07;101287.38;2451024;27;46917;-87
2022/12/08 01:07:48;;;;;;;;;62.00;50.25;;;;;7.06;66.37;101279.53;2447236;28;45277;-87
2022/12/08 01:09:00;;;;;;;;;68.00;52.25;;;;;7.05;65.87;101285.66;2441473;28;46208;-86
2022/12/08 01:10:10;;;;;;;;;71.50;52.00;;;;;7.05;66.57;101276.94;2441806;28;45242;-86
2022/12/08 01:11:21;;;;;;;;;60.75;47.00;;;;;7.05;65.89;101287.41;2440192;28;47441;-86
2022/12/08 01:12:31;;;;;;;;;69.25;51.50;;;;;7.05;66.45;101284.78;2446330;28;45153;-86
2022/12/08 01:13:42;;;;;;;;;67.75;50.75;;;;;7.04;66.05;101276.06;2449869;27;46436;-86
2022/12/08 01:14:52;;;;;;;;;66.50;48.75;;;;;7.06;66.54;101278.69;2439700;28;45465;-86
2022/12/08 01:16:03;;;;;;;;;64.25;50.50;;;;;7.05;66.11;101274.34;2460405;27;46036;-86
2022/12/08 01:17:14;;;;;;;;;74.75;53.50;;;;;7.05;66.17;101271.72;2455115;27;44662;-86
2022/12/08 01:18:25;;;;;;;;;67.50;52.50;;;;;7.05;66.59;101276.94;2439730;28;48083;-86
2022/12/08 01:19:36;;;;;;;;;66.00;51.25;;;;;7.05;66.30;101276.94;2431565;28;44812;-86
2022/12/08 01:20:46;;;;;;;;;64.25;52.00;;;;;7.04;66.72;101276.06;2433265;28;46284;-87
2022/12/08 01:21:56;;;;;;;;;67.50;50.00;;;;;7.05;66.06;101276.94;2442034;28;44724;-86
2022/12/08 01:23:07;;;;;;;;;67.75;52.75;;;;;7.05;66.62;101279.56;2442014;28;45246;-87
2022/12/08 01:24:20;;;;;;;;;65.00;48.75;;;;;7.05;66.83;101272.59;2441236;28;45185;-87
2022/12/08 01:25:33;;;;;;;;;62.00;50.25;;;;;7.05;67.14;101266.50;2434075;28;47064;-86
2022/12/08 01:26:44;;;;;;;;;68.00;50.25;;;;;7.06;66.79;101268.25;2434627;28;45406;-85
2022/12/08 01:27:54;;;;;;;;;67.25;52.00;;;;;7.06;66.88;101270.84;2433007;28;47911;-86
2022/12/08 01:29:05;;;;;;;;;69.25;51.25;;;;;7.08;66.30;101269.97;2441308;28;44689;-86
2022/12/08 01:30:15;;;;;;;;;67.50;50.25;;;;;7.08;66.63;101269.09;2433568;28;46238;-85
2022/12/08 01:31:25;;;;;;;;;64.75;46.75;;;;;7.08;66.62;101269.97;2438285;28;45322;-85
2022/12/08 01:32:36;;;;;;;;;64.50;50.00;;;;;7.09;66.36;101262.94;2433700;28;48155;-86
2022/12/08 01:33:47;;;;;;;;;66.50;50.75;;;;;7.09;66.27;101265.56;2441436;28;44700;-86
2022/12/08 01:34:58;;;;;;;;;69.25;50.75;;;;;7.10;66.66;101264.69;2440927;28;47165;-86
2022/12/08 01:36:21;;;;;;;;;58.75;48.00;;;;;7.09;66.24;101263.81;2440392;28;45340;-86
2022/12/08 01:37:31;;;;;;;;;62.75;49.00;;;;;7.09;66.83;101253.38;2433031;28;46228;-86
2022/12/08 01:38:41;;;;;;;;;59.00;46.75;;;;;7.11;66.32;101260.34;2460801;27;44730;-86
2022/12/08 01:39:52;;;;;;;;;61.25;47.50;;;;;7.11;66.47;101257.72;2447035;28;45929;-86
2022/12/08 01:41:02;;;;;;;;;57.50;47.00;;;;;7.11;66.24;101255.13;2441259;28;45305;-86
2022/12/08 01:42:20;;;;;;;;;60.25;47.25;;;;;7.11;66.18;101256.00;2440905;28;48267;-85
2022/12/08 01:43:53;;;;;;;;;60.50;45.50;;;;;7.12;66.21;101255.09;2441386;28;45232;-85
2022/12/08 01:45:18;;;;;;;;;62.50;47.00;;;;;7.12;66.54;101252.47;2441705;28;45586;-86
2022/12/08 01:46:30;;;;;;;;;60.50;46.00;;;;;7.13;66.70;101250.72;2441331;28;45228;-86
2022/12/08 01:47:45;;;;;;;;;58.50;44.75;;;;;7.13;66.42;101254.22;2440458;28;46949;-85
2022/12/08 01:49:03;;;;;;;;;59.75;45.25;;;;;7.11;66.36;101250.75;2441445;28;44707;-85
2022/12/08 01:50:17;;;;;;;;;61.50;47.75;;;;;7.11;66.18;101250.75;2440514;28;46768;-86
2022/12/08 01:51:29;;;;;;;;;59.25;43.75;;;;;7.12;66.34;101249.88;2441711;28;44581;-85
2022/12/08 01:52:45;;;;;;;;;52.25;43.25;;;;;7.12;66.32;101247.25;2450056;28;47294;-84
2022/12/08 01:53:55;;;;;;;;;60.50;45.25;;;;;7.12;66.81;101252.47;2432092;28;45165;-85
2022/12/08 01:55:24;;;;;;;;;56.75;42.75;;;;;7.12;66.70;101249.88;2438068;28;45357;-85
2022/12/08 01:57:01;;;;;;;;;55.25;40.50;;;;;7.11;66.63;101247.28;2441000;28;45306;-85
2022/12/08 01:58:20;;;;;;;;;54.50;41.00;;;;;7.11;66.53;101250.75;2431939;28;48337;-85
2022/12/08 01:59:34;;;;;;;;;56.00;42.25;;;;;7.12;65.90;101249.88;2435053;28;45294;-85
2022/12/08 02:00:47;;;;;;;;;55.50;44.25;;;;;7.11;66.19;101249.88;2440973;28;45333;-86
2022/12/08 02:01:58;;;;;;;;;53.25;40.75;;;;;7.09;66.10;101242.91;2450735;28;44556;-86
2022/12/08 02:03:15;;;;;;;;;56.25;42.50;;;;;7.11;66.34;101252.50;2447020;28;46681;-85
2022/12/08 02:04:25;;;;;;;;;55.00;41.75;;;;;7.09;66.19;101242.91;2441429;28;45297;-86
2022/12/08 02:05:38;;;;;;;;;61.00;42.00;;;;;7.11;66.15;101239.44;2440407;28;46372;-85
2022/12/08 02:06:50;;;;;;;;;55.75;43.75;;;;;7.10;66.17;101241.19;2441369;28;45218;-85
2022/12/08 02:08:06;;;;;;;;;65.25;44.00;;;;;7.10;66.14;101238.56;2440619;28;47283;-85
2022/12/08 02:09:18;;;;;;;;;56.75;42.75;;;;;7.11;66.63;101240.31;2440918;28;44636;-85
2022/12/08 02:10:32;;;;;;;;;49.75;42.25;;;;;7.12;66.11;101235.91;2439405;28;47336;-85
2022/12/08 02:11:42;;;;;;;;;53.50;42.00;;;;;7.11;66.37;101242.91;2450475;28;45791;-85
2022/12/08 02:32:12;;;;;;;;;59.50;44.50;;;;;7.11;66.69;101242.91;2438602;28;45393;-85
2022/12/08 02:33:44;;;;;;;;;56.25;44.50;;;;;7.11;66.58;101242.91;2441233;28;45421;-86
2022/12/08 02:35:01;;;;;;;;;56.50;43.75;;;;;7.13;66.42;101245.50;2438032;28;45195;-85
2022/12/08 02:36:28;;;;;;;;;50.25;42.00;;;;;7.12;66.43;101249.88;2434695;28;45590;-85
2022/12/08 02:37:49;;;;;;;;;54.00;42.00;;;;;7.13;66.14;101240.28;2435254;28;45515;-85
2022/12/08 02:39:36;;;;;;;;;54.50;42.50;;;;;7.13;66.14;101235.91;2430879;28;47554;-85
2022/12/08 02:40:58;;;;;;;;;57.00;42.25;;;;;7.14;66.21;101237.63;2431556;28;45189;-85
2022/12/08 02:42:36;;;;;;;;;46.50;36.50;;;;;7.15;66.41;101235.91;2440828;28;46774;-85
2022/12/08 02:44:10;;;;;;;;;47.75;41.00;;;;;7.15;66.10;101228.06;2433853;28;45208;-85
2022/12/08 02:45:35;;;;;;;;;56.75;44.50;;;;;7.15;66.32;101222.81;2441282;27;46747;-85
2022/12/08 02:47:13;;;;;;;;;52.75;42.50;;;;;7.15;66.09;101220.22;2440206;28;45299;-86
2022/12/08 02:48:27;;;;;;;;;55.25;40.00;;;;;7.13;66.00;101217.63;2432767;28;48136;-85
2022/12/08 02:49:37;;;;;;;;;58.00;42.75;;;;;7.14;66.23;101214.09;2439410;28;44776;-86
2022/12/08 02:50:48;;;;;;;;;59.25;44.00;;;;;7.14;66.02;101219.34;2449950;28;47900;-85
2022/12/08 02:52:10;;;;;;;;;52.50;41.50;;;;;7.14;66.17;101208.88;2435685;28;45384;-85
2022/12/08 02:53:20;;;;;;;;;53.25;41.75;;;;;7.14;65.97;101215.84;2442897;28;46848;-86
2022/12/08 02:54:32;;;;;;;;;49.00;37.50;;;;;7.15;66.05;101215.84;2446203;28;45234;-86
2022/12/08 02:56:00;;;;;;;;;45.50;39.75;;;;;7.15;66.11;101208.00;2440899;28;46585;-87
2022/12/08 02:57:32;;;;;;;;;60.50;44.25;;;;;7.14;66.48;101214.09;2441352;28;45289;-87
2022/12/08 02:59:01;;;;;;;;;57.75;42.50;;;;;7.15;66.01;101204.53;2440392;28;47180;-85
2022/12/08 03:00:14;;;;;;;;;51.50;40.00;;;;;7.14;65.82;101211.50;2436822;28;44814;-86
2022/12/08 03:01:48;;;;;;;;;57.50;43.00;;;;;7.14;65.81;101208.00;2440226;28;46319;-86
2022/12/08 03:03:15;;;;;;;;;56.00;42.00;;;;;7.14;65.93;101205.38;2441269;28;44613;-86
2022/12/08 03:04:36;;;;;;;;;59.25;46.25;;;;;7.12;65.52;101200.19;2434581;28;46658;-86
2022/12/08 03:06:08;;;;;;;;;55.50;40.50;;;;;7.12;65.44;101200.19;2446175;28;45307;-86
2022/12/08 03:07:45;;;;;;;;;61.75;43.75;;;;;7.11;65.72;101202.84;2445910;28;47067;-85
2022/12/08 03:09:09;;;;;;;;;56.00;42.50;;;;;7.09;65.45;101206.31;2423438;28;44701;-86
2022/12/08 03:10:38;;;;;;;;;60.75;43.50;;;;;7.09;65.52;101198.47;2439808;28;47206;-86
2022/12/08 03:11:53;;;;;;;;;55.25;42.00;;;;;7.09;65.55;101195.84;2440848;28;45467;-87
2022/12/08 03:13:15;;;;;;;;;52.75;42.50;;;;;7.07;65.76;101196.75;2441093;28;46538;-86
2022/12/08 03:14:28;;;;;;;;;54.75;40.50;;;;;7.04;65.61;101186.31;2446164;28;45543;-86
2022/12/08 03:15:40;;;;;;;;;52.50;42.00;;;;;7.03;65.38;101189.84;2447218;28;45294;-86
2022/12/08 03:16:54;;;;;;;;;54.00;44.25;;;;;7.04;65.63;101186.31;2441306;28;44668;-87
2022/12/08 03:18:07;;;;;;;;;56.50;42.75;;;;;7.04;65.72;101188.94;2435415;28;47330;-86
2022/12/08 03:19:22;;;;;;;;;56.75;42.75;;;;;7.04;65.90;101181.09;2442457;28;44768;-86
2022/12/08 03:20:33;;;;;;;;;58.50;43.75;;;;;7.05;65.46;101185.47;2442741;28;45412;-86
2022/12/08 03:22:02;;;;;;;;;62.25;44.75;;;;;7.05;65.43;101181.09;2442985;28;45196;-85
2022/12/08 03:23:15;;;;;;;;;58.00;44.00;;;;;7.07;65.18;101181.06;2442600;28;45387;-87
2022/12/08 03:24:25;;;;;;;;;54.25;43.00;;;;;7.08;65.75;101180.19;2441551;28;45594;-86
2022/12/08 03:25:43;;;;;;;;;49.75;39.25;;;;;7.07;65.80;101175.84;2441981;28;47116;-86
2022/12/08 03:27:01;;;;;;;;;49.25;39.25;;;;;7.08;65.59;101174.97;2438584;28;45369;-86
2022/12/08 03:28:12;;;;;;;;;54.25;42.25;;;;;7.07;65.70;101170.63;2438779;28;47357;-86
2022/12/08 03:29:23;;;;;;;;;59.00;41.75;;;;;7.06;65.26;101172.34;2442230;28;45424;-87
2022/12/08 03:30:39;;;;;;;;;53.75;42.00;;;;;7.07;65.41;101170.63;2451796;27;47075;-86
2022/12/08 03:31:56;;;;;;;;;50.75;39.75;;;;;7.08;65.53;101167.13;2448674;28;45389;-87
2022/12/08 03:33:18;;;;;;;;;49.00;37.25;;;;;7.08;65.61;101169.75;2442711;28;45325;-85
2022/12/08 03:34:28;;;;;;;;;54.75;41.75;;;;;7.06;65.26;101169.75;2437507;28;45259;-85
2022/12/08 03:35:40;;;;;;;;;55.25;42.25;;;;;7.05;65.28;101167.16;2432184;28;47811;-86
2022/12/08 03:36:50;;;;;;;;;53.25;37.75;;;;;7.04;65.46;101173.25;2433766;28;44855;-87
2022/12/08 03:38:10;;;;;;;;;54.75;44.00;;;;;7.01;64.54;101161.13;2439029;28;45250;-86
2022/12/08 03:39:20;;;;;;;;;50.25;39.00;;;;;7.00;65.03;101163.72;2437114;28;44621;-86
2022/12/08 03:40:31;;;;;;;;;47.50;34.50;;;;;6.98;64.95;101162.00;2442386;28;45299;-86
2022/12/08 03:41:41;;;;;;;;;55.25;41.00;;;;;6.98;65.07;101164.63;2442773;28;45258;-86
2022/12/08 03:42:51;;;;;;;;;52.50;39.25;;;;;6.97;64.90;101157.66;2442526;28;46428;-86
2022/12/08 03:44:02;;;;;;;;;57.75;42.50;;;;;6.97;64.90;101159.41;2439786;28;45275;-86
2022/12/08 03:45:12;;;;;;;;;48.75;40.25;;;;;6.96;65.34;101161.13;2440784;28;45413;-87
2022/12/08 03:46:25;;;;;;;;;50.50;38.25;;;;;6.97;65.49;101155.03;2442351;28;45481;-84
2022/12/08 03:47:36;;;;;;;;;53.00;42.25;;;;;6.97;65.21;101155.03;2441173;28;45445;-87
2022/12/08 03:48:47;;;;;;;;;53.75;41.25;;;;;6.96;64.85;101153.31;2450507;28;45258;-86
2022/12/08 03:49:57;;;;;;;;;54.00;39.75;;;;;6.95;65.09;101151.59;2446528;28;45466;-86
2022/12/08 03:51:08;;;;;;;;;52.75;40.50;;;;;6.97;65.14;101148.94;2440007;28;45461;-86
2022/12/08 03:52:18;;;;;;;;;56.75;41.75;;;;;6.98;65.41;101148.06;2441987;28;45358;-86
2022/12/08 03:53:28;;;;;;;;;50.50;37.50;;;;;6.98;65.10;101148.06;2442615;28;45325;-87
2022/12/08 03:54:38;;;;;;;;;54.75;43.00;;;;;6.98;65.01;101140.22;2441701;28;46484;-86
2022/12/08 03:55:49;;;;;;;;;53.75;41.50;;;;;6.99;65.27;101141.94;2451541;28;45270;-86
2022/12/08 03:56:59;;;;;;;;;52.50;42.00;;;;;6.99;64.99;101141.94;2448943;28;45283;-87
2022/12/08 03:58:09;;;;;;;;;49.75;39.25;;;;;7.00;65.28;101142.81;2441826;28;44745;-86
2022/12/08 03:59:20;;;;;;;;;50.00;39.75;;;;;7.00;65.44;101137.59;2441862;28;45256;-86
2022/12/08 04:00:31;;;;;;;;;47.25;38.75;;;;;7.02;65.34;101147.16;2442643;28;45256;-87
2022/12/08 04:01:41;;;;;;;;;54.00;41.75;;;;;7.00;65.45;101143.69;2440344;28;47467;-86
2022/12/08 04:02:52;;;;;;;;;59.00;40.50;;;;;7.02;65.85;101146.28;2434683;28;45326;-86
2022/12/08 04:04:02;;;;;;;;;54.75;41.50;;;;;7.03;65.72;101141.06;2441772;28;46575;-86
2022/12/08 04:05:13;;;;;;;;;42.75;38.25;;;;;7.04;65.44;101141.88;2441371;28;44664;-86
2022/12/08 04:06:24;;;;;;;;;54.00;39.75;;;;;7.04;65.30;101142.75;2441809;28;46317;-86
2022/12/08 04:07:34;;;;;;;;;56.75;43.25;;;;;7.03;65.24;101143.66;2441829;28;45370;-85
2022/12/08 04:08:45;;;;;;;;;54.50;41.75;;;;;7.02;65.37;101146.28;2442000;28;45448;-86
2022/12/08 04:09:55;;;;;;;;;39.25;35.25;;;;;7.02;64.95;101141.91;2441331;28;44997;-86
2022/12/08 04:11:06;;;;;;;;;51.75;40.75;;;;;7.01;65.00;101140.22;2441509;28;47066;-86
2022/12/08 04:12:16;;;;;;;;;49.75;37.50;;;;;7.01;64.93;101144.56;2432062;28;45319;-86
2022/12/08 04:13:26;;;;;;;;;49.00;39.00;;;;;7.00;65.00;101142.81;2450373;28;48050;-86
2022/12/08 04:14:37;;;;;;;;;52.25;40.25;;;;;7.01;65.27;101149.78;2451225;27;45205;-85
2022/12/08 04:15:47;;;;;;;;;49.00;39.00;;;;;7.00;64.94;101150.66;2442430;28;45163;-87
2022/12/08 04:16:58;;;;;;;;;44.25;38.25;;;;;6.99;65.42;101141.94;2442350;28;45279;-86
2022/12/08 04:18:08;;;;;;;;;54.00;39.50;;;;;7.00;65.38;101143.69;2441596;28;48205;-86
2022/12/08 04:19:18;;;;;;;;;50.75;40.75;;;;;7.00;65.48;101143.69;2432916;28;45422;-86
2022/12/08 04:20:29;;;;;;;;;48.00;36.50;;;;;7.02;65.11;101135.81;2443572;28;48655;-87
2022/12/08 04:21:39;;;;;;;;;49.75;38.75;;;;;7.02;65.54;101146.28;2438571;28;45483;-87
2022/12/08 04:22:50;;;;;;;;;52.25;41.75;;;;;7.04;65.30;101139.28;2445656;28;45266;-86
2022/12/08 04:24:00;;;;;;;;;47.75;39.50;;;;;7.03;64.96;101142.78;2441759;28;45185;-86
2022/12/08 04:25:10;;;;;;;;;50.75;39.25;;;;;7.04;64.96;101141.88;2438489;28;46612;-86
2022/12/08 04:26:20;;;;;;;;;49.25;38.25;;;;;7.02;64.88;101135.81;2435101;28;44597;-86
2022/12/08 04:27:31;;;;;;;;;47.25;36.50;;;;;7.03;65.46;101142.78;2442115;28;45238;-87
2022/12/08 04:28:41;;;;;;;;;54.00;41.25;;;;;7.03;64.81;101148.03;2450287;28;45465;-87
2022/12/08 04:29:52;;;;;;;;;50.75;39.50;;;;;7.03;64.92;101148.03;2443140;28;45459;-86
2022/12/08 04:31:02;;;;;;;;;49.75;38.75;;;;;7.02;64.43;101141.03;2432836;28;45202;-86
2022/12/08 04:32:12;;;;;;;;;50.50;38.00;;;;;7.01;65.14;101134.97;2434274;28;48236;-86
2022/12/08 04:33:23;;;;;;;;;43.50;35.75;;;;;7.00;64.90;101135.84;2434457;28;45295;-87
2022/12/08 04:34:33;;;;;;;;;45.75;37.50;;;;;7.00;65.37;101130.63;2441570;28;45252;-86
2022/12/08 04:35:44;;;;;;;;;56.50;42.75;;;;;7.01;65.26;101134.09;2441668;28;45190;-87
2022/12/08 04:36:54;;;;;;;;;50.00;40.50;;;;;7.00;65.39;101142.81;2441489;28;45789;-87
2022/12/08 04:38:04;;;;;;;;;54.75;40.00;;;;;7.00;64.86;101132.38;2442359;28;45448;-87
2022/12/08 04:39:15;;;;;;;;;50.00;39.00;;;;;7.01;64.57;101134.09;2441571;28;45461;-86
2022/12/08 04:40:25;;;;;;;;;48.00;37.00;;;;;6.98;64.83;101133.25;2440662;28;44635;-87
2022/12/08 04:41:35;;;;;;;;;55.25;41.75;;;;;6.99;64.73;101131.50;2434201;28;47931;-87
2022/12/08 04:42:46;;;;;;;;;48.50;36.75;;;;;6.97;65.12;101128.91;2434374;28;45352;-86
2022/12/08 04:43:56;;;;;;;;;53.00;38.50;;;;;6.97;64.70;101128.03;2441629;28;45243;-87
2022/12/08 04:45:07;;;;;;;;;43.25;36.25;;;;;6.96;64.76;101128.94;2436807;28;45210;-87
2022/12/08 04:46:17;;;;;;;;;44.50;37.00;;;;;6.95;64.58;101129.81;2433072;28;46394;-86
2022/12/08 04:47:27;;;;;;;;;46.75;35.75;;;;;6.93;65.36;101119.38;2440648;28;44654;-86
2022/12/08 04:48:39;;;;;;;;;46.00;36.00;;;;;6.94;64.72;101120.25;2424762;28;47160;-87
2022/12/08 04:49:50;;;;;;;;;49.50;38.25;;;;;6.94;65.22;101121.09;2437034;28;45459;-87
2022/12/08 04:51:00;;;;;;;;;44.50;38.25;;;;;6.95;64.94;101115.00;2442149;28;46253;-87
2022/12/08 04:52:10;;;;;;;;;44.75;36.00;;;;;6.94;65.28;101115.88;2441304;28;44685;-87
2022/12/08 04:53:20;;;;;;;;;49.00;38.50;;;;;6.93;64.96;101116.78;2441514;28;45393;-87
2022/12/08 04:54:31;;;;;;;;;51.50;38.50;;;;;6.92;64.94;101107.19;2450936;28;45338;-87
2022/12/08 04:55:43;;;;;;;;;45.75;36.25;;;;;6.94;64.75;101115.03;2432835;28;47084;-87
2022/12/08 04:56:54;;;;;;;;;47.50;38.00;;;;;6.93;64.96;101115.91;2449827;27;45353;-87
2022/12/08 04:58:04;;;;;;;;;48.75;37.00;;;;;6.91;65.05;101108.09;2448231;28;47879;-87
2022/12/08 04:59:14;;;;;;;;;46.50;35.00;;;;;6.91;64.99;101107.22;2441723;28;45483;-86
2022/12/08 05:00:25;;;;;;;;;41.25;33.75;;;;;6.90;64.83;101111.56;2439806;28;45425;-87
2022/12/08 05:01:35;;;;;;;;;49.25;35.25;;;;;6.89;64.75;101109.81;2436914;28;45307;-87
2022/12/08 05:02:45;;;;;;;;;43.25;35.75;;;;;6.87;65.04;101108.97;2431669;28;46160;-86
2022/12/08 05:03:56;;;;;;;;;41.75;36.00;;;;;6.85;64.69;101114.25;2441821;28;45224;-86
2022/12/08 05:05:06;;;;;;;;;42.25;35.50;;;;;6.85;64.57;101108.13;2450614;28;47295;-85
2022/12/08 05:06:17;;;;;;;;;45.75;33.25;;;;;6.84;64.75;101106.44;2441707;28;45251;-87
2022/12/08 05:07:27;;;;;;;;;44.00;37.25;;;;;6.84;64.98;101109.03;2441030;28;45199;-87
2022/12/08 05:08:38;;;;;;;;;33.75;26.00;;;;;6.82;64.42;101101.19;2441973;28;45209;-87
2022/12/08 05:09:48;;;;;;;;;43.50;34.25;;;;;6.81;64.52;101107.31;2438969;28;46366;-86
2022/12/08 05:11:04;;;;;;;;;39.50;34.25;;;;;6.80;64.70;101100.34;2451151;28;44676;-87
2022/12/08 05:12:14;;;;;;;;;49.50;39.00;;;;;6.78;64.61;101099.50;2447689;28;46145;-87
2022/12/08 05:13:24;;;;;;;;;45.50;36.00;;;;;6.78;64.79;101096.03;2441525;28;45657;-87
2022/12/08 05:14:35;;;;;;;;;50.75;38.00;;;;;6.75;65.00;101094.31;2441977;28;45633;-87
2022/12/08 05:15:45;;;;;;;;;47.00;36.25;;;;;6.72;64.76;101100.44;2441994;28;45260;-87
2022/12/08 05:16:55;;;;;;;;;51.50;39.25;;;;;6.69;64.49;101092.63;2441742;28;46006;-86
2022/12/08 05:18:06;;;;;;;;;50.25;39.50;;;;;6.68;64.67;101096.13;2451072;27;45345;-87
2022/12/08 05:19:17;;;;;;;;;47.25;35.50;;;;;6.66;64.16;101099.66;2448226;28;46581;-87
2022/12/08 05:20:27;;;;;;;;;45.00;34.00;;;;;6.65;64.79;101096.16;2439883;28;45366;-86
2022/12/08 05:21:38;;;;;;;;;51.50;38.75;;;;;6.63;64.79;101097.94;2434056;28;48420;-87
2022/12/08 05:22:48;;;;;;;;;42.25;35.75;;;;;6.60;64.46;101105.78;2439792;28;45207;-87
2022/12/08 05:23:59;;;;;;;;;47.50;36.75;;;;;6.58;64.97;101091.88;2440787;28;45298;-86
2022/12/08 05:25:09;;;;;;;;;47.00;36.75;;;;;6.56;65.05;101094.53;2436570;28;44815;-87
2022/12/08 05:26:20;;;;;;;;;49.00;36.50;;;;;6.54;64.67;101093.69;2441276;28;45302;-86
2022/12/08 05:27:30;;;;;;;;;39.75;33.50;;;;;6.52;64.92;101090.19;2442081;28;45271;-87
2022/12/08 05:28:40;;;;;;;;;40.75;33.00;;;;;6.49;65.05;101091.13;2450782;28;46971;-86
2022/12/08 05:29:51;;;;;;;;;41.25;31.50;;;;;6.50;64.64;101089.34;2437364;28;45442;-87
2022/12/08 05:31:01;;;;;;;;;36.00;27.50;;;;;6.48;64.90;101094.59;2432300;28;45468;-86
2022/12/08 05:32:11;;;;;;;;;41.50;33.00;;;;;6.47;64.59;101092.00;2450814;28;45568;-87
2022/12/08 05:33:22;;;;;;;;;43.50;32.75;;;;;6.45;64.94;101089.41;2447818;28;45478;-86
2022/12/08 05:34:32;;;;;;;;;40.25;34.00;;;;;6.43;64.58;101093.78;2441157;28;45309;-86
2022/12/08 05:35:43;;;;;;;;;46.50;34.50;;;;;6.42;65.02;101094.63;2438373;28;46510;-87
2022/12/08 05:36:53;;;;;;;;;41.75;33.50;;;;;6.39;64.77;101095.56;2432171;28;45557;-87
2022/12/08 05:38:05;;;;;;;;;43.25;32.50;;;;;6.38;65.12;101092.94;2432078;28;45342;-86
2022/12/08 05:39:15;;;;;;;;;37.50;34.00;;;;;6.37;64.72;101096.47;2441594;28;45381;-87
2022/12/08 05:40:26;;;;;;;;;37.25;32.00;;;;;6.37;64.99;101099.91;2441451;28;45255;-86
2022/12/08 05:41:36;;;;;;;;;43.75;32.50;;;;;6.37;65.34;101099.91;2441108;28;45236;-87
2022/12/08 05:42:46;;;;;;;;;33.50;30.00;;;;;6.37;65.12;101096.47;2433906;28;47598;-87
2022/12/08 05:43:56;;;;;;;;;39.00;33.50;;;;;6.37;65.09;101091.22;2440863;28;44827;-86
2022/12/08 05:45:08;;;;;;;;;42.50;33.75;;;;;6.37;65.29;101093.84;2450716;28;48134;-86
2022/12/08 05:46:18;;;;;;;;;40.50;30.50;;;;;6.36;65.03;101095.59;2441121;28;45281;-86
2022/12/08 05:47:28;;;;;;;;;44.50;33.00;;;;;6.35;64.95;101103.41;2439653;28;46324;-86
2022/12/08 05:48:39;;;;;;;;;43.75;30.75;;;;;6.37;65.31;101099.06;2441724;28;44670;-86
2022/12/08 05:49:49;;;;;;;;;41.50;30.25;;;;;6.35;65.08;101099.06;2441511;28;45242;-87
2022/12/08 05:51:00;;;;;;;;;40.50;33.00;;;;;6.36;65.03;101102.53;2438256;28;45223;-87
2022/12/08 05:52:11;;;;;;;;;41.00;32.00;;;;;6.34;65.22;101094.75;2441493;28;45770;-86
2022/12/08 05:53:21;;;;;;;;;44.25;33.50;;;;;6.33;65.17;101100.81;2441225;28;45275;-87
2022/12/08 05:54:31;;;;;;;;;41.50;30.50;;;;;6.32;65.32;101093.03;2440658;28;47269;-86
2022/12/08 05:55:42;;;;;;;;;36.75;31.00;;;;;6.32;64.92;101098.25;2440949;28;45350;-86
2022/12/08 05:56:52;;;;;;;;;42.75;34.25;;;;;6.30;65.40;101095.63;2441510;28;45363;-86
2022/12/08 05:58:03;;;;;;;;;43.00;33.50;;;;;6.31;64.90;101099.97;2432098;28;44760;-87
2022/12/08 05:59:13;;;;;;;;;42.00;35.25;;;;;6.32;65.53;101103.47;2436787;28;45318;-87
2022/12/08 06:00:23;;;;;;;;;38.50;33.25;;;;;6.32;65.40;101093.03;2441673;28;44682;-86
2022/12/08 06:02:54;;;;;;;;;39.75;33.00;;;;;6.32;65.10;101098.25;2652988;22;45537;-87